Time;durP1;ratioP1;P1;durP2;ratioP2;P2;SDS_P1;SDS_P2;PMS_P1;PMS_P2;Temp;Humidity;BMP_temperature;BMP_pressure;BME280_temperature;BME280_humidity;BME280_pressure;Samples;Min_cycle;Max_cycle;Signal;HPM_P1;HPM_P2
2022/03/03 00:02:03;;;;;;;;;;;;;;;;;;;;;
2022/03/03 00:04:49;;;;;;;;;;;;;;;;;;;;;
2022/03/03 00:07:17;;;;;;;0.00;0.00;;;;;;;9.57;71.05;100370.34;6216095;23;20079;-75
2022/03/03 00:09:56;;;;;;;0.00;0.00;;;;;;;9.59;71.05;100373.66;6188788;23;20012;-76
2022/03/03 00:12:21;;;;;;;0.00;0.00;;;;;;;9.53;71.09;100357.47;6214877;23;19996;-75
2022/03/03 00:14:52;;;;;;;0.00;0.00;;;;;;;9.52;71.22;100350.38;6189048;23;20008;-76
2022/03/03 00:17:25;;;;;;;0.00;0.00;;;;;;;9.53;71.31;100352.84;6191572;23;20146;-78
2022/03/03 00:23:03;;;;;;;;;;;;;;;;;;;;;
2022/03/03 00:25:33;;;;;;;0.00;0.00;;;;;;;9.49;71.40;100332.63;6224502;23;20032;-77
2022/03/03 00:28:07;;;;;;;0.00;0.00;;;;;;;9.53;71.88;100350.09;6219385;23;20031;-76
2022/03/03 00:30:50;;;;;;;;;;;;;;;;;;;;;
2022/03/03 00:33:16;;;;;;;0.00;0.00;;;;;;;9.57;71.40;100331.31;6217645;23;20060;-77
2022/03/03 00:35:48;;;;;;;0.00;0.00;;;;;;;9.52;71.57;100323.91;6189730;23;20424;-77
2022/03/03 00:38:17;;;;;;;0.00;0.00;;;;;;;9.63;71.53;100334.91;6215089;23;20056;-77
2022/03/03 00:40:52;;;;;;;0.00;0.00;;;;;;;9.54;72.05;100321.72;6216407;23;20012;-75
2022/03/03 00:43:24;;;;;;;0.00;0.00;;;;;;;9.58;71.45;100322.03;6217523;23;20438;-77
2022/03/03 00:45:50;;;;;;;0.00;0.00;;;;;;;9.52;71.79;100318.47;6216003;23;20427;-78
2022/03/03 00:48:28;;;;;;;0.00;0.00;;;;;;;9.55;71.59;100319.81;6216599;23;20052;-80
2022/03/03 00:51:04;;;;;;;;;;;;;;;;;;;;;
2022/03/03 00:53:32;;;;;;;0.00;0.00;;;;;;;9.58;71.98;100328.31;6217845;23;20100;-74
2022/03/03 00:55:57;;;;;;;0.00;0.00;;;;;;;9.52;72.22;100313.00;6212198;23;20381;-72
2022/03/03 00:58:23;;;;;;;0.00;0.00;;;;;;;9.57;72.30;100320.41;6213438;23;20008;-74
2022/03/03 01:00:58;;;;;;;0.00;0.00;;;;;;;9.51;72.20;100310.53;6212000;23;20012;-75
2022/03/03 01:03:24;;;;;;;0.00;0.00;;;;;;;9.55;72.15;100317.09;6212195;23;20422;-74
2022/03/03 01:06:00;;;;;;;0.00;0.00;;;;;;;9.51;72.00;100322.25;6186557;23;20012;-73
2022/03/03 01:08:28;;;;;;;0.00;0.00;;;;;;;9.53;72.13;100322.81;6214208;23;20005;-74
2022/03/03 01:10:54;;;;;;;0.00;0.00;;;;;;;9.52;72.37;100318.47;6187645;23;20065;-73
2022/03/03 01:13:22;;;;;;;0.00;0.00;;;;;;;9.53;72.37;100319.25;6213287;23;20627;-72
2022/03/03 01:15:48;;;;;;;0.00;0.00;;;;;;;9.51;71.90;100305.88;6213847;23;20031;-73
2022/03/03 01:18:14;;;;;;;0.00;0.00;;;;;;;9.54;72.23;100299.91;6212426;23;20012;-76
2022/03/03 01:20:39;;;;;;;0.00;0.00;;;;;;;9.55;72.50;100301.53;6214937;23;20067;-75
2022/03/03 01:23:07;;;;;;;0.00;0.00;;;;;;;9.56;72.30;100296.91;6215457;23;20052;-72
2022/03/03 01:25:33;;;;;;;0.00;0.00;;;;;;;9.51;72.65;100283.22;6231815;23;20024;-72
2022/03/03 01:27:58;;;;;;;0.00;0.00;;;;;;;9.51;72.14;100275.03;6205105;23;20008;-72
2022/03/03 01:30:24;;;;;;;0.00;0.00;;;;;;;9.55;72.74;100285.16;6227124;23;20012;-73
2022/03/03 01:32:49;;;;;;;0.00;0.00;;;;;;;9.55;72.71;100282.44;6225903;23;20016;-73
2022/03/03 01:35:21;;;;;;;0.00;0.00;;;;;;;9.51;72.36;100273.13;6218549;23;20009;-74
2022/03/03 01:37:57;;;;;;;0.00;0.00;;;;;;;9.49;72.47;100269.84;6217325;23;20009;-74
2022/03/03 01:40:25;;;;;;;0.00;0.00;;;;;;;9.51;72.41;100267.66;6218709;23;20000;-73
2022/03/03 01:42:51;;;;;;;0.00;0.00;;;;;;;9.53;72.84;100270.94;6217990;23;20000;-73
2022/03/03 01:45:17;;;;;;;0.00;0.00;;;;;;;9.45;72.51;100257.81;6214043;23;20012;-73
2022/03/03 01:47:42;;;;;;;0.00;0.00;;;;;;;9.49;72.66;100258.09;6212421;23;20015;-73
2022/03/03 01:50:08;;;;;;;0.00;0.00;;;;;;;9.47;72.94;100261.06;6211915;23;20012;-73
2022/03/03 01:52:34;;;;;;;0.00;0.00;;;;;;;9.49;72.98;100264.38;6184764;23;20462;-72
2022/03/03 01:54:59;;;;;;;0.00;0.00;;;;;;;9.53;72.62;100264.66;6186577;23;20095;-73
2022/03/03 01:57:25;;;;;;;0.00;0.00;;;;;;;9.52;73.04;100263.84;6184721;23;20004;-73
2022/03/03 02:00:01;;;;;;;0.00;0.00;;;;;;;9.51;72.52;100259.47;6214080;23;20013;-76
2022/03/03 02:02:31;;;;;;;0.00;0.00;;;;;;;9.50;72.78;100255.09;6213632;23;20043;-73
2022/03/03 02:04:56;;;;;;;0.00;0.00;;;;;;;9.52;73.22;100257.56;6185667;23;20327;-75
2022/03/03 02:07:22;;;;;;;0.00;0.00;;;;;;;9.46;72.84;100248.50;6213665;23;20009;-74
2022/03/03 02:09:47;;;;;;;0.00;0.00;;;;;;;9.55;72.86;100257.88;6160851;23;20168;-75
2022/03/03 02:12:13;;;;;;;0.00;0.00;;;;;;;9.55;73.09;100255.13;6187531;23;20012;-74
2022/03/03 02:14:49;;;;;;;0.00;0.00;;;;;;;9.54;72.30;100248.03;6215182;23;20375;-75
2022/03/03 02:17:15;;;;;;;0.00;0.00;;;;;;;9.53;72.49;100243.63;6186020;23;20000;-75
2022/03/03 02:19:44;;;;;;;0.00;0.00;;;;;;;9.55;72.52;100235.19;6186752;23;19996;-73
2022/03/03 02:22:10;;;;;;;0.00;0.00;;;;;;;9.52;72.60;100230.25;6207560;23;20032;-74
2022/03/03 02:24:43;;;;;;;0.00;0.00;;;;;;;9.60;72.38;100246.97;6213972;23;20028;-74
2022/03/03 02:27:10;;;;;;;0.00;0.00;;;;;;;9.61;72.44;100248.63;6213062;23;20035;-75
2022/03/03 02:29:38;;;;;;;0.00;0.00;;;;;;;9.65;72.07;100246.19;6186289;23;20009;-75
2022/03/03 02:32:07;;;;;;;0.00;0.00;;;;;;;9.66;72.45;100242.34;6185061;23;20005;-72
2022/03/03 02:34:36;;;;;;;0.00;0.00;;;;;;;9.67;72.31;100246.75;6214502;23;20008;-74
2022/03/03 02:37:11;;;;;;;0.00;0.00;;;;;;;9.64;72.24;100238.25;6187133;23;20079;-76
2022/03/03 02:39:39;;;;;;;0.00;0.00;;;;;;;9.72;72.37;100245.94;6213750;23;20008;-74
2022/03/03 02:42:13;;;;;;;0.00;0.00;;;;;;;9.70;72.36;100237.22;6212324;23;20082;-73
2022/03/03 02:44:39;;;;;;;0.00;0.00;;;;;;;9.67;72.81;100226.81;6186561;23;20005;-74
2022/03/03 02:47:17;;;;;;;;;;;;;;;;;;;;;
2022/03/03 02:49:43;;;;;;;0.00;0.00;;;;;;;9.63;72.57;100221.06;6213123;23;20079;-73
2022/03/03 02:52:08;;;;;;;0.00;0.00;;;;;;;9.64;72.74;100217.25;6184490;23;20470;-73
2022/03/03 02:54:34;;;;;;;0.00;0.00;;;;;;;9.65;72.23;100212.59;6212394;23;20737;-74
2022/03/03 02:59:46;;;;;;;0.00;0.00;;;;;;;9.67;72.35;100210.44;6190685;23;20019;-73
2022/03/03 03:02:12;;;;;;;0.00;0.00;;;;;;;9.61;72.61;100196.75;6185763;23;20431;-75
2022/03/03 03:04:40;;;;;;;0.00;0.00;;;;;;;9.58;72.90;100188.28;6184095;23;20095;-74
2022/03/03 03:07:06;;;;;;;0.00;0.00;;;;;;;9.57;73.01;100203.00;6213309;23;20000;-74
2022/03/03 03:09:34;;;;;;;0.00;0.00;;;;;;;9.58;72.71;100200.00;6187121;23;20008;-72
2022/03/03 03:11:59;;;;;;;0.00;0.00;;;;;;;9.56;72.93;100198.63;6210970;23;20004;-73
2022/03/03 03:14:25;;;;;;;0.00;0.00;;;;;;;9.60;72.59;100200.56;6211444;23;20008;-72
2022/03/03 03:16:52;;;;;;;0.00;0.00;;;;;;;9.57;72.43;100190.16;6211746;23;20080;-72
2022/03/03 03:19:27;;;;;;;0.00;0.00;;;;;;;9.56;72.58;100191.28;6186582;23;20008;-73
2022/03/03 03:22:10;;;;;;;0.00;0.00;;;;;;;9.59;72.76;100192.63;6213679;23;20008;-72
2022/03/03 03:24:35;;;;;;;0.00;0.00;;;;;;;9.54;72.99;100179.78;6212240;23;20317;-72
2022/03/03 03:27:01;;;;;;;0.00;0.00;;;;;;;9.57;73.13;100184.72;6185606;23;20091;-72
2022/03/03 03:29:26;;;;;;;0.00;0.00;;;;;;;9.64;72.59;100178.19;6186976;23;20019;-73
2022/03/03 03:31:54;;;;;;;0.00;0.00;;;;;;;9.63;73.19;100182.03;6186300;23;20066;-72
2022/03/03 03:34:20;;;;;;;0.00;0.00;;;;;;;9.65;72.89;100174.38;6211636;23;20347;-73
2022/03/03 03:36:45;;;;;;;0.00;0.00;;;;;;;9.59;73.31;100166.16;6214466;23;20008;-73
2022/03/03 03:39:11;;;;;;;0.00;0.00;;;;;;;9.63;72.95;100160.19;6211754;23;20071;-72
2022/03/03 03:41:43;;;;;;;0.00;0.00;;;;;;;9.64;72.87;100172.72;6163085;23;20494;-73
2022/03/03 03:44:12;;;;;;;0.00;0.00;;;;;;;9.66;72.94;100171.38;6211598;23;20001;-73
2022/03/03 03:46:37;;;;;;;0.00;0.00;;;;;;;9.67;72.75;100173.03;6185546;23;20008;-74
2022/03/03 03:49:03;;;;;;;0.00;0.00;;;;;;;9.66;73.24;100170.56;6212845;23;20016;-73
2022/03/03 03:51:29;;;;;;;0.00;0.00;;;;;;;9.62;72.58;100167.53;6185994;23;20009;-73
2022/03/03 03:53:57;;;;;;;0.00;0.00;;;;;;;9.61;72.63;100160.44;6186842;23;20023;-74
2022/03/03 03:56:22;;;;;;;0.22;0.22;;;;;;;9.65;73.00;100163.44;6186317;23;20017;-73
2022/03/03 03:58:49;;;;;;;0.00;0.00;;;;;;;9.61;73.38;100152.25;6162652;23;20034;-74
2022/03/03 04:01:14;;;;;;;0.00;0.00;;;;;;;9.65;73.11;100158.00;6186992;23;20035;-74
2022/03/03 04:03:40;;;;;;;0.00;0.00;;;;;;;9.57;72.89;100146.50;6213239;23;20012;-72
2022/03/03 04:06:22;;;;;;;0.00;0.00;;;;;;;9.63;73.29;100150.06;6187284;23;20016;-74
2022/03/03 04:08:47;;;;;;;0.00;0.00;;;;;;;9.58;72.87;100153.59;6213404;23;20342;-72
2022/03/03 04:11:15;;;;;;;0.00;0.00;;;;;;;9.59;73.17;100144.34;6184005;23;20009;-72
2022/03/03 04:13:41;;;;;;;0.00;0.00;;;;;;;9.63;73.35;100152.00;6213159;23;20005;-73
2022/03/03 04:16:15;;;;;;;0.00;0.00;;;;;;;9.57;73.07;100134.75;6187956;23;20438;-72
2022/03/03 04:18:41;;;;;;;0.00;0.00;;;;;;;9.58;73.21;100137.22;6213211;23;20008;-72
2022/03/03 04:21:06;;;;;;;0.00;0.00;;;;;;;9.56;73.75;100136.69;6212934;23;20023;-72
2022/03/03 04:23:32;;;;;;;0.00;0.00;;;;;;;9.60;73.68;100137.75;6212868;23;20028;-73
2022/03/03 04:25:58;;;;;;;0.00;0.00;;;;;;;9.57;73.78;100132.84;6186375;23;20082;-72
2022/03/03 04:28:26;;;;;;;0.00;0.00;;;;;;;9.64;73.20;100132.59;6216120;23;20005;-73
2022/03/03 04:30:51;;;;;;;0.00;0.00;;;;;;;9.66;73.63;100137.78;6213957;23;20076;-74
2022/03/03 04:33:19;;;;;;;0.00;0.00;;;;;;;9.66;73.66;100132.34;6214255;23;20009;-74
2022/03/03 04:35:45;;;;;;;0.00;0.00;;;;;;;9.63;73.29;100127.41;6187313;23;20075;-73
2022/03/03 04:38:11;;;;;;;0.00;0.00;;;;;;;9.67;74.01;100134.00;6211548;23;20028;-74
2022/03/03 04:40:36;;;;;;;0.00;0.00;;;;;;;9.65;73.70;100119.78;6215389;23;20008;-75
2022/03/03 04:43:04;;;;;;;0.00;0.00;;;;;;;9.63;73.44;100116.50;6185074;23;20008;-74
2022/03/03 04:45:32;;;;;;;0.00;0.00;;;;;;;9.61;73.48;100109.38;6216668;23;20000;-73
2022/03/03 04:47:57;;;;;;;0.00;0.00;;;;;;;9.66;73.72;100111.31;6214503;23;20004;-73
2022/03/03 04:50:23;;;;;;;0.00;0.00;;;;;;;9.63;73.85;100111.84;6187214;23;20059;-71
2022/03/03 04:52:49;;;;;;;0.00;0.00;;;;;;;9.66;73.39;100110.50;6215032;23;20020;-73
2022/03/03 04:55:14;;;;;;;0.30;0.30;;;;;;;9.65;73.83;100108.84;6189041;23;20004;-72
2022/03/03 04:57:42;;;;;;;0.00;0.00;;;;;;;9.62;73.68;100107.47;6139262;23;20009;-74
2022/03/03 05:00:09;;;;;;;0.00;0.00;;;;;;;9.64;74.23;100107.19;6165047;23;20435;-75
2022/03/03 05:02:37;;;;;;;0.00;0.00;;;;;;;9.61;74.09;100103.94;6186193;23;20375;-73
2022/03/03 05:05:05;;;;;;;0.00;0.00;;;;;;;9.71;74.25;100118.69;6163358;23;20028;-74
2022/03/03 05:07:31;;;;;;;0.00;0.00;;;;;;;9.68;74.19;100108.31;6186422;23;20343;-73
2022/03/03 05:10:06;;;;;;;0.00;0.00;;;;;;;9.66;74.17;100110.50;6186958;23;20012;-72
2022/03/03 05:12:42;;;;;;;0.00;0.00;;;;;;;9.66;73.86;100110.50;6185859;23;20008;-75
2022/03/03 05:15:12;;;;;;;0.00;0.00;;;;;;;9.70;74.33;100122.53;6213901;23;20005;-74
2022/03/03 05:17:40;;;;;;;0.00;0.00;;;;;;;9.66;73.89;100110.50;6215606;23;20001;-74
2022/03/03 05:20:06;;;;;;;0.00;0.00;;;;;;;9.64;74.02;100110.75;6215706;23;20028;-74
2022/03/03 05:22:32;;;;;;;0.00;0.00;;;;;;;9.68;74.24;100111.03;6216108;23;20136;-75
2022/03/03 05:24:57;;;;;;;0.00;0.00;;;;;;;9.65;73.87;100114.31;6215012;23;20012;-75
2022/03/03 05:27:23;;;;;;;0.00;0.00;;;;;;;9.63;74.27;100109.13;6188738;23;20019;-73
2022/03/03 05:29:58;;;;;;;;;;;;;;;;;;;;;
2022/03/03 05:32:24;;;;;;;0.00;0.00;;;;;;;9.63;73.97;100113.75;6214344;23;20079;-73
2022/03/03 05:34:49;;;;;;;0.00;0.00;;;;;;;9.60;74.13;100107.72;6186419;23;20039;-74
2022/03/03 05:37:24;;;;;;;0.00;0.00;;;;;;;9.61;74.49;100114.03;6140439;23;20013;-74
2022/03/03 05:39:50;;;;;;;0.00;0.00;;;;;;;9.60;74.67;100120.56;6213246;23;20520;-72
2022/03/03 05:42:18;;;;;;;0.00;0.00;;;;;;;9.56;74.64;100106.66;6216045;23;20308;-75
2022/03/03 05:44:44;;;;;;;0.00;0.00;;;;;;;9.56;74.91;100101.19;6213269;23;20004;-73
2022/03/03 05:47:12;;;;;;;0.00;0.00;;;;;;;9.59;74.75;100110.72;6163190;23;20020;-72
2022/03/03 05:49:47;;;;;;;0.00;0.00;;;;;;;9.57;74.19;100112.91;6211998;23;20015;-71
2022/03/03 05:52:13;;;;;;;0.00;0.00;;;;;;;9.60;74.59;100118.66;6186563;23;20000;-73
2022/03/03 05:54:42;;;;;;;0.00;0.00;;;;;;;9.55;74.39;100118.66;6211540;23;20020;-72
2022/03/03 05:57:17;;;;;;;0.00;0.00;;;;;;;9.54;75.05;100110.72;6211919;23;20012;-71
2022/03/03 05:59:43;;;;;;;0.00;0.00;;;;;;;9.58;74.88;100115.38;6213059;23;20028;-74
2022/03/03 06:02:12;;;;;;;0.00;0.00;;;;;;;9.66;74.50;100119.50;6185829;23;20008;-74
2022/03/03 06:04:40;;;;;;;0.00;0.00;;;;;;;9.61;74.73;100114.84;6185301;23;20427;-72
2022/03/03 06:07:07;;;;;;;0.00;0.00;;;;;;;9.67;74.65;100118.41;6211906;23;20125;-74
2022/03/03 06:09:35;;;;;;;0.00;0.00;;;;;;;9.65;75.20;100108.84;6161219;23;20012;-73
2022/03/03 06:12:12;;;;;;;0.00;0.00;;;;;;;9.69;74.65;100112.69;6186944;23;20008;-74
2022/03/03 06:14:57;;;;;;;;;;;;;;;;;;;;;
2022/03/03 06:17:25;;;;;;;0.00;0.00;;;;;;;9.61;74.67;100103.94;6215626;23;20079;-72
2022/03/03 06:19:52;;;;;;;0.00;0.00;;;;;;;9.68;74.96;100113.78;6213202;23;20354;-74
2022/03/03 06:22:18;;;;;;;0.00;0.00;;;;;;;9.61;75.11;100109.38;6215912;23;20092;-73
2022/03/03 06:24:47;;;;;;;0.00;0.00;;;;;;;9.66;74.58;100113.22;6210544;23;20013;-73
2022/03/03 06:27:13;;;;;;;0.00;0.00;;;;;;;9.66;74.97;100110.50;6216660;23;20602;-74
2022/03/03 06:29:38;;;;;;;0.00;0.00;;;;;;;9.67;74.90;100112.16;6185828;23;20009;-72
2022/03/03 06:32:05;;;;;;;0.00;0.00;;;;;;;9.66;75.11;100121.41;6186880;23;20047;-72
2022/03/03 06:34:31;;;;;;;0.00;0.00;;;;;;;9.70;75.03;100130.72;6212278;23;20008;-72
2022/03/03 06:36:59;;;;;;;0.00;0.00;;;;;;;9.72;75.20;100131.25;6212388;23;20016;-72
2022/03/03 06:39:24;;;;;;;0.00;0.00;;;;;;;9.67;75.11;100118.41;6185523;23;20005;-73
2022/03/03 06:41:52;;;;;;;0.00;0.00;;;;;;;9.69;74.76;100123.59;6164763;23;20031;-75
2022/03/03 06:44:19;;;;;;;0.00;0.00;;;;;;;9.73;74.73;100124.72;6192097;23;20012;-73
2022/03/03 06:46:47;;;;;;;0.00;0.00;;;;;;;9.69;75.22;100118.16;6212601;23;20015;-73
2022/03/03 06:49:13;;;;;;;0.00;0.00;;;;;;;9.72;74.71;100114.88;6162666;23;20012;-74
2022/03/03 07:16:55;;;;;;;0.00;0.00;;;;;;;9.82;75.58;100125.03;6087783;23;20520;-73
2022/03/03 07:19:28;;;;;;;0.00;0.00;;;;;;;9.84;75.68;100112.75;6154749;23;20161;-74
2022/03/03 07:22:32;;;;;;;0.00;0.00;;;;;;;9.85;75.44;100119.03;6185598;23;20441;-73
2022/03/03 07:25:10;;;;;;;0.00;0.00;;;;;;;9.90;75.39;100122.59;6150216;23;20094;-72
2022/03/03 07:27:41;;;;;;;0.00;0.00;;;;;;;9.87;75.38;100117.66;6186310;23;20009;-73
2022/03/03 07:30:10;;;;;;;0.00;0.00;;;;;;;9.87;75.50;100114.09;6211763;23;20012;-73
2022/03/03 07:32:47;;;;;;;0.00;0.00;;;;;;;9.93;75.57;100122.06;6213112;23;20000;-73
2022/03/03 07:35:15;;;;;;;0.00;0.00;;;;;;;9.94;75.99;100115.50;6212879;23;20399;-73
2022/03/03 07:37:59;;;;;;;0.00;0.00;;;;;;;9.99;75.72;100108.38;6211760;23;20007;-74
2022/03/03 07:40:38;;;;;;;0.00;0.00;;;;;;;10.03;76.41;100110.34;6212237;23;20023;-74
2022/03/03 07:43:09;;;;;;;0.00;0.00;;;;;;;10.10;75.88;100104.59;6163217;23;20091;-74
2022/03/03 07:45:34;;;;;;;0.00;0.00;;;;;;;10.17;76.21;100104.34;6213875;23;20008;-74
2022/03/03 07:48:00;;;;;;;0.00;0.00;;;;;;;10.27;76.25;100104.34;6186776;23;20009;-74
2022/03/03 07:50:26;;;;;;;0.00;0.00;;;;;;;10.33;75.69;100102.44;6162122;23;20012;-74
2022/03/03 07:52:53;;;;;;;0.00;0.00;;;;;;;10.37;76.05;100111.78;6189324;23;20046;-75
2022/03/03 07:55:22;;;;;;;0.00;0.00;;;;;;;10.37;75.39;100106.31;6164410;23;20083;-72
2022/03/03 07:57:53;;;;;;;0.00;0.00;;;;;;;10.41;76.24;100110.13;6188765;23;20036;-73
2022/03/03 08:00:33;;;;;;;0.00;0.00;;;;;;;10.51;76.25;100112.03;6187471;23;20004;-74
2022/03/03 08:03:00;;;;;;;0.00;0.00;;;;;;;10.56;75.97;100115.59;6211950;23;20039;-74
2022/03/03 08:05:35;;;;;;;0.00;0.00;;;;;;;10.57;75.69;100108.22;6187095;23;20047;-73
2022/03/03 08:08:02;;;;;;;0.00;0.00;;;;;;;10.60;75.90;100119.44;6215163;23;19997;-75
2022/03/03 08:10:31;;;;;;;0.00;0.00;;;;;;;10.57;76.24;100114.53;6217008;23;20050;-73
2022/03/03 08:12:59;;;;;;;0.00;0.00;;;;;;;10.54;75.97;100104.13;6214884;23;20102;-74
2022/03/03 08:15:25;;;;;;;0.00;0.00;;;;;;;10.52;76.21;100109.03;6187124;23;20012;-74
2022/03/03 08:17:57;;;;;;;0.00;0.00;;;;;;;10.49;75.89;100112.31;6207691;23;20012;-74
2022/03/03 08:23:23;;;;;;;;;;;;;;;;;;;;;
2022/03/03 08:29:42;;;;;;;;;;;;;;;;;;;;;
2022/03/03 08:36:05;;;;;;;0.00;0.00;;;;;;;10.74;76.09;100114.22;6183112;23;20513;-73
2022/03/03 08:38:51;;;;;;;0.00;0.00;;;;;;;10.76;76.63;100111.22;6216922;23;20008;-75
2022/03/03 08:41:41;;;;;;;0.00;0.00;;;;;;;10.74;76.96;100108.75;6190460;23;20004;-75
2022/03/03 08:45:09;;;;;;;;;;;;;;;;;;;;;
2022/03/03 08:51:19;;;;;;;;;;;;;;;;;;;;;
2022/03/03 08:53:53;;;;;;;0.00;0.00;;;;;;;10.72;77.24;100093.72;6195671;23;20092;-73
2022/03/03 09:00:04;;;;;;;0.00;0.00;;;;;;;10.82;76.61;100086.31;5962828;23;20019;-75
2022/03/03 09:06:01;;;;;;;0.00;0.00;;;;;;;10.92;76.73;100110.13;6151953;23;20092;-74
2022/03/03 09:08:39;;;;;;;0.00;0.00;;;;;;;10.88;76.56;100089.88;6189687;23;20092;-74
2022/03/03 09:11:09;;;;;;;0.00;0.00;;;;;;;10.96;76.93;100102.16;6193775;23;20008;-73
2022/03/03 09:14:04;;;;;;;0.00;0.00;;;;;;;10.97;76.74;100096.41;6215355;23;20484;-74
2022/03/03 09:16:50;;;;;;;0.00;0.00;;;;;;;11.14;76.80;100117.16;6217724;22;20017;-74
2022/03/03 09:19:28;;;;;;;;;;;;;;;;;;;;;
2022/03/03 09:22:06;;;;;;;0.00;0.00;;;;;;;11.19;76.31;100103.47;6224839;23;20009;-75
2022/03/03 09:25:41;;;;;;;0.00;0.00;;;;;;;11.30;76.99;100113.31;6180274;23;20036;-75
2022/03/03 09:28:14;;;;;;;0.00;0.00;;;;;;;11.32;76.22;100108.38;6220879;23;20016;-74
2022/03/03 09:31:37;;;;;;;;;;;;;;;;;;;;;
2022/03/03 09:34:32;;;;;;;0.00;0.00;;;;;;;11.66;76.45;100095.91;6097134;23;20028;-74
2022/03/03 09:40:17;;;;;;;0.00;0.00;;;;;;;12.08;76.52;100110.25;6040150;23;20011;-74
2022/03/03 09:43:38;;;;;;;;;;;;;;;;;;;;;
2022/03/03 09:46:09;;;;;;;0.00;0.00;;;;;;;12.15;75.16;100121.69;5992352;23;20094;-74
2022/03/03 09:52:16;;;;;;;0.00;0.00;;;;;;;12.15;75.26;100108.81;5919362;24;20009;-75
2022/03/03 09:58:13;;;;;;;0.00;0.00;;;;;;;12.39;74.90;100106.16;6039677;23;20038;-75
2022/03/03 10:03:50;;;;;;;0.00;0.00;;;;;;;12.45;74.34;100106.94;6020258;23;20034;-72
2022/03/03 10:10:00;;;;;;;0.00;0.00;;;;;;;12.37;73.69;100111.13;6047919;23;20011;-75
2022/03/03 10:12:31;;;;;;;0.00;0.00;;;;;;;12.37;73.99;100113.06;6043795;23;20030;-75
2022/03/03 10:15:06;;;;;;;0.00;0.00;;;;;;;12.38;73.58;100117.44;6044450;23;20301;-75
2022/03/03 10:18:43;;;;;;;0.00;0.00;;;;;;;12.43;74.10;100095.47;6148591;23;20017;-73
2022/03/03 10:21:08;;;;;;;0.00;0.00;;;;;;;12.55;72.99;100106.06;6179139;23;20020;-74
2022/03/03 10:31:22;;;;;;;0.00;0.00;;;;;;;12.76;72.75;100101.19;6002264;23;20007;-74
2022/03/03 10:34:48;;;;;;;;;;;;;;;;;;;;;
2022/03/03 10:37:28;;;;;;;0.00;0.00;;;;;;;12.90;72.44;100087.63;5931440;24;20083;-75
2022/03/03 10:40:02;;;;;;;0.00;0.00;;;;;;;13.14;72.14;100090.41;6075348;23;20433;-73
2022/03/03 10:42:56;;;;;;;0.00;0.00;;;;;;;13.27;72.32;100091.63;6127283;23;20317;-74
2022/03/03 10:46:21;;;;;;;5.07;4.68;;;;;;;13.40;71.44;100096.47;6119766;23;20009;-75
2022/03/03 10:49:33;;;;;;;;;;;;;;;;;;;;;
2022/03/03 10:52:26;;;;;;;0.00;0.00;;;;;;;13.35;70.07;100102.00;6184324;23;20376;-73
2022/03/03 10:55:11;;;;;;;0.00;0.00;;;;;;;13.29;70.11;100097.66;6185505;23;20005;-73
2022/03/03 10:58:01;;;;;;;0.00;0.00;;;;;;;13.15;70.34;100096.72;6158436;23;20015;-73
2022/03/03 11:00:43;;;;;;;0.00;0.00;;;;;;;13.03;69.84;100088.88;6138560;23;20444;-75
2022/03/03 11:03:36;;;;;;;0.00;0.00;;;;;;;12.85;70.14;100087.69;6158877;23;20029;-76
2022/03/03 11:06:24;;;;;;;0.00;0.00;;;;;;;12.77;69.86;100091.88;6159451;23;20066;-78
2022/03/03 11:09:35;;;;;;;;;;;;;;;;;;;;;
2022/03/03 11:12:28;;;;;;;0.00;0.00;;;;;;;12.68;70.41;100105.41;6186433;23;20089;-74
2022/03/03 11:15:59;;;;;;;;;;;;;;;;;;;;;
2022/03/03 11:18:27;;;;;;;0.00;0.00;;;;;;;12.21;70.86;100090.44;6215320;22;20101;-74
2022/03/03 11:21:21;;;;;;;0.00;0.00;;;;;;;12.13;72.05;100096.50;6189376;23;20332;-74
2022/03/03 11:24:08;;;;;;;0.00;0.00;;;;;;;12.15;72.65;100097.03;6189699;23;20048;-75
2022/03/03 11:26:57;;;;;;;0.00;0.00;;;;;;;12.14;72.65;100100.88;6190261;23;20462;-75
2022/03/03 11:29:22;;;;;;;0.00;0.00;;;;;;;12.18;73.39;100112.94;6165818;23;20009;-76
2022/03/03 11:32:18;;;;;;;0.00;0.00;;;;;;;12.11;73.61;100101.47;6166642;23;20032;-76
2022/03/03 11:35:24;;;;;;;;;;;;;;;;;;;;;
2022/03/03 11:38:15;;;;;;;0.00;0.00;;;;;;;11.85;74.27;100115.28;6212966;23;20071;-73
2022/03/03 11:41:26;;;;;;;0.00;0.00;;;;;;;11.65;74.87;100117.03;6216918;23;20319;-77
2022/03/03 11:44:12;;;;;;;;;;;;;;;;;;;;;
2022/03/03 11:46:52;;;;;;;0.00;0.00;;;;;;;11.38;76.71;100111.09;6170076;23;20084;-72
2022/03/03 11:49:39;;;;;;;;;;;;;;;;;;;;;
2022/03/03 11:52:16;;;;;;;0.00;0.00;;;;;;;11.21;77.00;100098.53;6216297;23;20075;-74
2022/03/03 11:55:02;;;;;;;;;;;;;;;;;;;;;
2022/03/03 12:04:42;;;;;;;0.00;0.00;;;;;;;11.14;78.54;100089.81;6063537;23;20007;-75
2022/03/03 12:07:27;;;;;;;0.00;0.00;;;;;;;11.14;78.83;100092.53;6179899;23;20013;-73
2022/03/03 12:10:21;;;;;;;;;;;;;;;;;;;;;
2022/03/03 12:12:47;;;;;;;0.00;0.00;;;;;;;11.14;79.87;100095.28;6213331;23;20072;-72
2022/03/03 12:15:19;;;;;;;0.00;0.00;;;;;;;11.21;79.83;100101.28;6190292;23;20001;-73
2022/03/03 12:17:54;;;;;;;0.00;0.00;;;;;;;11.24;79.82;100106.19;6217498;23;20024;-73
2022/03/03 12:23:45;;;;;;;0.00;0.00;;;;;;;11.29;80.80;100102.66;6063930;23;20063;-73
2022/03/03 12:26:54;;;;;;;0.00;0.00;;;;;;;11.30;79.92;100099.63;6017030;23;20007;-73
2022/03/03 12:29:33;;;;;;;0.00;0.00;;;;;;;11.38;80.24;100106.44;6183592;23;20040;-74
2022/03/03 12:35:59;;;;;;;0.00;0.00;;;;;;;11.31;80.92;100087.56;6113561;23;20016;-75
2022/03/03 12:38:52;;;;;;;0.00;0.00;;;;;;;11.42;81.49;100095.72;6188295;23;20008;-74
2022/03/03 12:41:43;;;;;;;0.00;0.00;;;;;;;11.45;80.72;100085.06;6192121;23;20004;-74
2022/03/03 12:44:48;;;;;;;;;;;;;;;;;;;;;
2022/03/03 12:47:54;;;;;;;;;;;;;;;;;;;;;
2022/03/03 12:50:25;;;;;;;0.00;0.00;;;;;;;11.31;81.22;100095.78;6214128;23;20111;-74
2022/03/03 12:53:03;;;;;;;0.00;0.00;;;;;;;11.28;81.05;100088.13;6187842;23;20004;-74
2022/03/03 12:55:39;;;;;;;0.00;0.00;;;;;;;11.22;81.40;100094.72;6207748;23;20061;-74
2022/03/03 12:58:41;;;;;;;;;;;;;;;;;;;;;
2022/03/03 13:01:24;;;;;;;0.00;0.00;;;;;;;11.11;82.07;100095.84;6190171;23;20333;-74
2022/03/03 13:04:03;;;;;;;0.00;0.00;;;;;;;11.02;82.27;100092.03;6184864;23;20000;-74
2022/03/03 13:06:37;;;;;;;0.00;0.00;;;;;;;10.93;82.37;100091.78;6212553;23;20012;-74
2022/03/03 13:09:31;;;;;;;0.00;0.00;;;;;;;10.89;82.36;100083.28;6187899;23;20004;-74
2022/03/03 13:12:26;;;;;;;;;;;;;;;;;;;;;
2022/03/03 13:15:12;;;;;;;;;;;;;;;;;;;;;
2022/03/03 13:21:56;;;;;;;0.00;0.00;;;;;;;11.05;83.09;100096.94;6206305;23;19903;-75
2022/03/03 13:24:24;;;;;;;0.00;0.00;;;;;;;10.99;83.53;100096.97;6128410;23;20011;-74
2022/03/03 13:27:17;;;;;;;0.00;0.00;;;;;;;10.89;82.75;100082.47;6188121;23;20024;-75
2022/03/03 13:29:52;;;;;;;0.00;0.00;;;;;;;10.85;83.22;100084.13;6189227;23;20014;-74
2022/03/03 13:32:37;;;;;;;;;;;;;;;;;;;;;
2022/03/03 13:35:29;;;;;;;;;;;;;;;;;;;;;
2022/03/03 13:38:04;;;;;;;0.00;0.00;;;;;;;11.02;83.88;100087.38;6219445;23;20027;-74
2022/03/03 13:40:30;;;;;;;0.00;0.00;;;;;;;11.05;84.17;100086.00;6193119;23;20043;-75
2022/03/03 13:42:59;;;;;;;0.00;0.00;;;;;;;11.08;84.04;100091.75;6162316;23;20020;-74
2022/03/03 13:45:50;;;;;;;0.00;0.00;;;;;;;11.09;84.34;100081.63;6192294;23;20051;-74
2022/03/03 13:48:15;;;;;;;0.00;0.00;;;;;;;11.07;84.04;100072.84;6210990;23;20008;-72
2022/03/03 13:50:45;;;;;;;0.00;0.00;;;;;;;11.15;83.59;100080.50;6162114;23;20012;-70
2022/03/03 13:53:32;;;;;;;3.75;0.88;;;;;;;11.13;84.18;100077.25;6187727;23;20015;-71
2022/03/03 14:05:40;;;;;;;0.00;0.00;;;;;;;11.06;84.09;100079.44;6191829;23;20004;-73
2022/03/03 14:08:29;;;;;;;0.00;0.00;;;;;;;10.94;84.51;100075.09;6170603;23;20312;-71
2022/03/03 14:11:32;;;;;;;0.00;0.00;;;;;;;10.93;84.82;100081.66;6213787;23;20076;-71
2022/03/03 14:13:59;;;;;;;0.00;0.00;;;;;;;10.92;84.89;100079.19;6113230;23;20019;-72
2022/03/03 14:16:42;;;;;;;0.00;0.00;;;;;;;10.94;85.24;100077.00;6188917;22;20004;-72
2022/03/03 14:19:11;;;;;;;0.00;0.00;;;;;;;10.93;84.97;100057.03;6185901;23;20087;-73
2022/03/03 14:29:04;;;;;;;0.00;0.00;;;;;;;11.25;85.73;100055.03;6125710;23;20020;-75
2022/03/03 14:32:28;;;;;;;0.00;0.00;;;;;;;11.58;85.52;100059.00;6209365;23;20214;-74
2022/03/03 14:34:53;;;;;;;0.00;0.00;;;;;;;11.90;85.15;100067.84;6185136;23;20074;-72
2022/03/03 14:38:11;;;;;;;0.00;0.00;;;;;;;11.98;85.01;100065.34;6159018;23;20339;-72
2022/03/03 14:40:45;;;;;;;0.00;0.00;;;;;;;12.09;84.29;100066.13;6160527;23;20016;-71